الصفحة الرئيسية
METAR-TAF:

METAR-TAF

مطار :

Guilin, جمهورية الصين الشعبية

مطار قويلين يانغ جيانغ الدولي

دائرة عرض: 25-20N, خط طول: 110-18E, ارتفاع: 166 متر

مراقبة الطقس الحالي

تاريخ ووقت الإصدار 14 دقيقة قبل الساعة 07:00UTC
ريح 6 عقدة من الشمال/الشمال الغربي
درجة الحرارة 19°درجة مئوية
الرطوبة 60%
ضغط 1018 hPa
الرؤية: 3500 متر
العجاج

METAR: ZGKL 190700Z 33003MPS 3500 HZ NSC 19/11 Q1018 NOSIG

زمن: 15:14 (07:14 UTC)

توقعات

تاريخ ووقت الإصدار 3ساعات و 55 دقيقة قبل الساعة 03:19UTC
التوقعات صالحة من19 الساعة 06 UTC إلى 20 الساعة 06 UTC
ريح 4 عقدة من الشمال الشرقي
الرؤية: 4000 متر
غيوم قليلة على ارتفاع 3300 قدم
ملبد بالغيوم على ارتفاع 5000 قدم
غشاء
مؤقت
من 19 الساعة 06 UTC إلى 19 الساعة 10 UTC
الرؤية: 2500 متر
مطر خفيف, غشاء

TAF: ZGKL 190319Z 1906/2006 05002MPS 4000 BR FEW033 OVC050 TX16/1907Z TN11/1922Z TEMPO 1906/1910 2500 -RA BR

أرصاد الطقس والتوقعات من أكثر من 4000 مطار (تقارير الطقس للمطار METAR والتنبؤ بالطقس بالمطارTAF).

المحطات المتاحة هي النقط الصفراء والحمراء على الخريطة.

حرك المؤشر فوق النقطة لمعرفة اسم المحطة.

ثم انقر لمعرفة أرصاد وتوقعات الطقس.

لتغيير الخارطة: اضغط على الأزرار الخضراء مع رمز الصليب الأسود للتكبير. على الزر الأخضر مع شرطة للتصغير، أو على الأسهم الخضراء للخرائط المجاورة.


METAR-TAF: